Alton, United Kingdom
Current Conditions -  °F | °C
As of 5:50 PM on Sunday 21 Dec 2014 (Local Time) from EGVO Reporting Station
Overcast Overcast  
Wind Chill: 50°   Ceiling: 1200
Heat Index: 50°   Visibility: 6mi
Dew Point: 45°   Wind: 18mph
Humidity: 82%   Direction: 220°SW
Pressure: 30.21"   Gusts: NA
Location:  51.15°N, 0.97°W
Report Text: EGVO 211750Z 22016KT 9999 OVC012 10/07 Q1023 GRN
Loading
Personal Weather Stations






























Interactive Weather Map New forecast layout! Learn more

10-Day Weather Forecast

Advertisements
Track Severe Weather on mobile